Sunday, November 23, 2014
05:47 UTC
  |  Log In   |  Register Free
Airport Search:

Teterboro Airport
(KTEB)

Airport information sponsored by:
Landmark Aviation - TEB at Teterboro (KTEB), Teterboro, NJ
FAA data valid effective November 13, 2014 - January 08, 2015 (unless otherwise noted).

 
 
 
 
 
 
 
 
 
 
 
 
 
 

Current Aviation Weather for Teterboro Airport (KTEB)

The most recent METAR observation for KTEB was updated at: 0541
METAR Summary (Translated METAR)
KTEB
230451Z 20005KT 10SM OVC110 06/M07 A3020 RMK AO2 SLP225 T00561072 400671067
KLGA
230451Z 23012KT 10SM FEW075 BKN120 BKN250 07/M06 A3020 RMK AO2 SLP228 T00671061 400671017
(9.6 nm SE from KTEB)
KCDW
230453Z AUTO VRB06KT 10SM BKN110 04/M08 A3020 RMK AO2 SLP234 T00441078 400611078 TSNO
(10.1 nm NW from KTEB)
TAF Summary (Translated TAF)
KTEB
230527Z 2306/2406 23005KT P6SM SCT070 BKN150 OVC250 WS020/26040KT FM231300 22008KT P6SM SCT080 BKN120 FM232200 19005KT P6SM SCT120 BKN200 FM240300 15003KT P6SM BKN008 BKN120
KLGA
(9.6 nm SE from KTEB)
230233Z 2303/2324 23012G19KT P6SM SCT050 BKN100 WS020/26040KT FM230600 23007KT P6SM BKN100 WS020/26040KT FM231500 22010G16KT P6SM BKN100 FM231900 19008KT P6SM SCT060 BKN100
  Airport Weather Conditions for KTEB

 Current Weather at TEB
42° F
A Few Clouds
Southwest winds at 9.2 mph
TEB NOAA Radar

Pressure: 30.20 in
Humidity: 38%
Wind: Southwest at 9.2 MPH (8 KT)
Dew Point: 18.0°F
Visibility: 10.00 mi


Airport Weather Forecast for KTEB

Translated METAR and TAF for KTEB
Translated METAR for KTEB (0542 UTC 23 November 2014)
found at http://aviationweather.gov/adds/metars/
 
METAR text: KTEB 230451Z 20005KT 10SM OVC110 06/M07 A3020 RMK AO2 SLP225 T00561072 400671067
Conditions at: KTEB (TETERBORO , NJ, US) observed 0451 UTC 23 November 2014
Temperature: 5.6°C (42°F)
Dewpoint: -7.2°C (19°F) [RH = 39%]
Pressure (altimeter): 30.20 inches Hg (1022.8 mb)
[Sea-level pressure: 1022.5 mb]
Winds: from the SSW (200 degrees) at 6 MPH (5 knots; 2.6 m/s)
Visibility: 10 or more miles (16+ km)
Ceiling: 11000 feet AGL
Clouds: overcast cloud deck at 11000 feet AGL
Weather: no significant weather observed at this time
Translated TAF for KTEB
Forecast for: KTEB (TETERBORO , NJ, US)
TAF Text: KTEB 230527Z 2306/2406 23005KT P6SM SCT070 BKN150 OVC250 WS020/26040KT
Forecast period: 0600 to 1300 UTC 23 November 2014
Forecast type: FROM: standard forecast or significant change
Winds: from the SW (230 degrees) at 6 MPH (5 knots; 2.6 m/s)
Visibility: 6 or more miles (10+ km)
Ceiling: 15000 feet AGL
Clouds: scattered clouds at 7000 feet AGL
broken clouds at 15000 feet AGL
overcast cloud deck at 25000 feet AGL
Wind shear: at 2000 feet ( 610 m) AGL, from the W (260 degrees) at 46 MPH (40 knots; 20.8 m/s)
Weather: no significant weather forecast for this period
TAF Text: FM231300 22008KT P6SM SCT080 BKN120
Forecast period: 1300 to 2200 UTC 23 November 2014
Forecast type: FROM: standard forecast or significant change
Winds: from the SW (220 degrees) at 9 MPH (8 knots; 4.2 m/s)
Visibility: 6 or more miles (10+ km)
Ceiling: 12000 feet AGL
Clouds: scattered clouds at 8000 feet AGL
broken clouds at 12000 feet AGL
Weather: no significant weather forecast for this period
TAF Text: FM232200 19005KT P6SM SCT120 BKN200
Forecast period: 2200 UTC 23 November 2014 to 0300 UTC 24 November 2014
Forecast type: FROM: standard forecast or significant change
Winds: from the S (190 degrees) at 6 MPH (5 knots; 2.6 m/s)
Visibility: 6 or more miles (10+ km)
Ceiling: 20000 feet AGL
Clouds: scattered clouds at 12000 feet AGL
broken clouds at 20000 feet AGL
Weather: no significant weather forecast for this period
TAF Text: FM240300 15003KT P6SM BKN008 BKN120
Forecast period: 0300 to 0600 UTC 24 November 2014
Forecast type: FROM: standard forecast or significant change
Winds: from the SSE (150 degrees) at 3 MPH (3 knots; 1.6 m/s)
Visibility: 6 or more miles (10+ km)
Ceiling: 800 feet AGL
Clouds: broken clouds at 800 feet AGL
broken clouds at 12000 feet AGL
Weather: no significant weather forecast for this period

Find All Airport Services Find A Hotel Find A Rental Car Find A Golf Course Find A Restaurant $100 Hamburger



FBO's on the Field
FBO Company Facility Photos Services Transportation Aviation Fuel Prices: Prices include tax
Catering Weather Repair Courtesy Rental Type 100LL JetA JetA+ MOGAS 8087
 
Landmark Aviation - TEB

Landmark Aviation - TEB logo
Currently rated 4.2 by 5 people
FS:
Last Updated: Nov-21
Login to update fuel prices
SS:
Contact Landmark Aviation - TEBMore FBO Information
 
Atlantic Aviation

Currently rated 4 by 1 person
FS:Independent
Last Updated: Nov-20
Login to update fuel prices
SS:
Contact Atlantic AviationMore FBO Information
 
Jet Aviation

Currently rated 4.7 by 3 people
FS:Phillips 66
Last Updated: Nov-12
Login to update fuel prices
SS:
Contact Jet AviationMore FBO Information
 
Meridian Teterboro

Currently rated 4.4 by 4 people
FS:Shell
Last Updated: Oct-22
Login to update fuel prices
SS:
Contact Meridian TeterboroMore FBO Information
 
Signature Flight Support

Currently rated 3.4 by 1 person
FS:Independent
Last Updated: Nov-21
Login to update fuel prices
SS:
Contact Signature Flight SupportMore FBO Information
 
Add another FBO Facility Photos Catering Weather Repair Courtesy Rental Type 100LL JetA JetA+ MOGAS 8087
Services Transportation Aviation Fuel Prices: Prices include tax


model-print
model-print
model-print
model-print